createdAt,value
2022-08-08T00:01:15.729Z,101805.28
2022-08-08T00:03:54.654Z,101803.00
2022-08-08T00:06:34.991Z,101797.84
2022-08-08T00:09:04.285Z,101796.28
2022-08-08T00:12:09.879Z,101795.00
2022-08-08T00:15:03.245Z,101796.50
2022-08-08T00:18:02.338Z,101804.06
2022-08-08T00:20:49.886Z,101792.03
2022-08-08T00:23:28.307Z,101798.91
2022-08-08T00:26:08.528Z,101789.38
2022-08-08T00:28:42.230Z,101788.00
2022-08-08T00:32:28.742Z,101788.63
2022-08-08T00:34:47.456Z,101786.75
2022-08-08T00:37:48.100Z,101782.03
2022-08-08T00:41:08.978Z,101779.81
2022-08-08T00:43:40.875Z,101780.38
2022-08-08T00:46:19.877Z,101786.41
2022-08-08T00:49:22.149Z,101784.25
2022-08-08T00:52:19.912Z,101781.41
2022-08-08T00:55:02.116Z,101797.41
2022-08-08T00:57:40.514Z,101798.03
2022-08-08T01:00:07.526Z,101800.63
2022-08-08T01:03:57.271Z,101797.53
2022-08-08T01:06:02.485Z,101798.31
2022-08-08T01:08:50.369Z,101798.91
2022-08-08T01:11:37.706Z,101805.22
2022-08-08T01:14:04.162Z,101791.22
2022-08-08T01:16:33.528Z,101795.69
2022-08-08T01:19:12.440Z,101802.13
2022-08-08T01:22:12.030Z,101795.47
2022-08-08T01:24:58.375Z,101791.09
2022-08-08T01:27:44.335Z,101797.41
2022-08-08T01:30:24.897Z,101797.88
2022-08-08T01:33:27.894Z,101782.94
2022-08-08T01:36:18.769Z,101788.44
2022-08-08T01:39:03.511Z,101791.09
2022-08-08T01:41:34.229Z,101790.75
2022-08-08T01:44:07.193Z,101796.72
2022-08-08T01:46:52.360Z,101791.91
2022-08-08T01:49:37.562Z,101792.94
2022-08-08T01:52:49.738Z,101783.28
2022-08-08T01:55:16.937Z,101777.25
2022-08-08T01:58:13.039Z,101778.03
2022-08-08T02:00:57.408Z,101773.72
2022-08-08T02:03:55.179Z,101777.13
2022-08-08T02:06:32.358Z,101773.72
2022-08-08T02:10:01.727Z,101773.19
2022-08-08T02:12:13.259Z,101773.09
2022-08-08T02:14:55.155Z,101776.41
2022-08-08T02:17:26.797Z,101775.47
2022-08-08T02:20:14.748Z,101778.13
2022-08-08T02:22:52.868Z,101775.31
2022-08-08T02:25:32.764Z,101778.59
2022-08-08T02:28:13.089Z,101781.47
2022-08-08T02:31:01.938Z,101779.53
2022-08-08T02:33:41.421Z,101779.06
2022-08-08T02:36:37.806Z,101788.47
2022-08-08T02:39:40.822Z,101781.47
2022-08-08T02:42:04.180Z,101784.47
2022-08-08T02:44:56.875Z,101777.66
2022-08-08T02:47:27.178Z,101781.13
2022-08-08T02:50:04.555Z,101773.03
2022-08-08T02:52:38.784Z,101776.22
2022-08-08T02:55:10.361Z,101774.47
2022-08-08T02:57:54.948Z,101771.59
2022-08-08T03:00:51.309Z,101764.78
2022-08-08T03:03:46.320Z,101769.81
2022-08-08T03:06:34.802Z,101755.72
2022-08-08T03:09:28.791Z,101756.94
2022-08-08T03:12:36.876Z,101761.25
2022-08-08T03:16:02.365Z,101764.97
2022-08-08T03:18:13.703Z,101771.16
2022-08-08T03:20:51.944Z,101769.47
2022-08-08T03:23:19.139Z,101772.47
2022-08-08T03:25:46.563Z,101760.06
2022-08-08T03:28:18.984Z,101766.97
2022-08-08T03:30:49.148Z,101772.69
2022-08-08T03:33:55.647Z,101770.31
2022-08-08T03:36:19.618Z,101771.19
2022-08-08T03:38:54.117Z,101777.50
2022-08-08T03:42:12.563Z,101768.84
2022-08-08T03:44:18.914Z,101763.66
2022-08-08T03:46:51.854Z,101773.41
2022-08-08T03:49:58.814Z,101767.38
2022-08-08T03:52:06.105Z,101768.59
2022-08-08T03:55:02.145Z,101768.97
2022-08-08T03:58:30.074Z,101769.59
2022-08-08T04:00:18.286Z,101776.50
2022-08-08T04:02:54.750Z,101769.53
2022-08-08T04:05:27.346Z,101777.88
2022-08-08T04:07:55.273Z,101766.44
2022-08-08T04:10:21.728Z,101777.75
2022-08-08T04:12:49.838Z,101780.81
2022-08-08T04:15:16.376Z,101779.34
2022-08-08T04:17:46.246Z,101783.47
2022-08-08T04:20:28.367Z,101787.44
2022-08-08T04:22:56.953Z,101780.97
2022-08-08T04:25:30.105Z,101780.22
2022-08-08T04:28:10.600Z,101782.75
2022-08-08T04:30:46.836Z,101789.03
2022-08-08T04:33:15.822Z,101787.88
2022-08-08T04:35:50.900Z,101794.13
2022-08-08T04:38:21.716Z,101791.16
2022-08-08T04:40:53.289Z,101796.53
2022-08-08T04:43:20.423Z,101799.59
2022-08-08T04:45:49.459Z,101798.50
2022-08-08T04:48:16.015Z,101793.00
2022-08-08T04:50:44.692Z,101798.88
2022-08-08T04:53:14.018Z,101802.81
2022-08-08T04:55:59.580Z,101797.78
2022-08-08T04:58:26.077Z,101807.41
2022-08-08T05:00:52.500Z,101807.38
2022-08-08T05:04:09.809Z,101809.91
2022-08-08T05:06:13.536Z,101815.00
2022-08-08T05:08:51.526Z,101811.41
2022-08-08T05:11:24.140Z,101811.28
2022-08-08T05:13:57.596Z,101821.38
2022-08-08T05:16:55.393Z,101821.50
2022-08-08T05:20:09.036Z,101821.94
2022-08-08T05:22:01.000Z,101826.91
2022-08-08T05:24:27.526Z,101829.31
2022-08-08T05:26:53.898Z,101826.81
2022-08-08T05:29:20.786Z,101835.56
2022-08-08T05:32:04.285Z,101842.53
2022-08-08T05:34:40.774Z,101844.13
2022-08-08T05:37:16.053Z,101839.47
2022-08-08T05:39:46.799Z,101836.88
2022-08-08T05:42:14.598Z,101840.69
2022-08-08T05:44:45.323Z,101845.66
2022-08-08T05:47:14.350Z,101849.28
2022-08-08T05:49:56.000Z,101852.16
2022-08-08T05:52:35.551Z,101851.63
2022-08-08T05:55:09.936Z,101847.59
2022-08-08T05:58:04.012Z,101864.28
2022-08-08T06:00:27.960Z,101861.22
2022-08-08T06:03:17.260Z,101858.63
2022-08-08T06:05:52.091Z,101867.19
2022-08-08T06:08:35.987Z,101870.31
2022-08-08T06:11:04.904Z,101874.03
2022-08-08T06:13:36.259Z,101877.00
2022-08-08T06:16:13.741Z,101877.34
2022-08-08T06:18:40.751Z,101882.94
2022-08-08T06:21:11.799Z,101879.69
2022-08-08T06:24:04.675Z,101883.47
2022-08-08T06:26:44.504Z,101887.06
2022-08-08T06:29:48.885Z,101895.16
2022-08-08T06:32:15.282Z,101898.41
2022-08-08T06:34:56.324Z,101895.81
2022-08-08T06:37:37.425Z,101899.69
2022-08-08T06:40:15.924Z,101906.19
2022-08-08T06:42:56.474Z,101907.13
2022-08-08T06:45:23.314Z,101917.19
2022-08-08T06:47:51.830Z,101909.06
2022-08-08T06:50:31.817Z,101922.69
2022-08-08T06:53:00.698Z,101918.97
2022-08-08T06:55:37.664Z,101929.34
2022-08-08T06:58:07.999Z,101925.53
2022-08-08T07:00:36.136Z,101924.94
2022-08-08T07:03:09.013Z,101929.81
2022-08-08T07:06:02.042Z,101926.81
2022-08-08T07:08:37.734Z,101933.28
2022-08-08T07:11:05.119Z,101943.38
2022-08-08T07:13:38.702Z,101952.59
2022-08-08T07:16:31.811Z,101953.19
2022-08-08T07:19:21.843Z,101954.13
2022-08-08T07:21:59.187Z,101955.09
2022-08-08T07:24:38.082Z,101959.59
2022-08-08T07:27:09.348Z,101968.13
2022-08-08T07:30:02.293Z,101962.34
2022-08-08T07:32:25.578Z,101968.09
2022-08-08T07:35:00.971Z,101967.78
2022-08-08T07:37:28.525Z,101973.88
2022-08-08T07:40:28.765Z,101985.53
2022-08-08T07:42:56.483Z,101986.50
2022-08-08T07:45:23.422Z,101989.03
2022-08-08T07:47:54.735Z,102003.91
2022-08-08T07:50:21.929Z,102000.81
2022-08-08T07:52:57.578Z,101999.84
2022-08-08T07:55:28.591Z,102007.09
2022-08-08T07:58:16.730Z,102010.81
2022-08-08T08:00:48.500Z,102011.69
2022-08-08T08:03:23.746Z,102012.97
2022-08-08T08:05:54.119Z,102018.59
2022-08-08T08:08:23.070Z,102017.47
2022-08-08T08:10:50.391Z,102015.94
2022-08-08T08:13:42.785Z,102017.19
2022-08-08T08:16:23.570Z,102021.69
2022-08-08T08:19:03.836Z,102025.72
2022-08-08T08:21:52.304Z,102026.94
2022-08-08T08:24:21.642Z,102019.44
2022-08-08T08:26:57.419Z,102021.88
2022-08-08T08:29:24.077Z,102027.09
2022-08-08T08:31:58.086Z,102029.00
2022-08-08T08:34:32.291Z,102033.09
2022-08-08T08:37:00.462Z,102031.19
2022-08-08T08:39:59.851Z,102026.00
2022-08-08T08:42:29.294Z,102035.56
2022-08-08T08:45:21.794Z,102039.19
2022-08-08T08:47:54.034Z,102034.78
2022-08-08T08:50:32.818Z,102039.25
2022-08-08T08:53:04.951Z,102039.25
2022-08-08T08:55:49.734Z,102031.28
2022-08-08T08:58:31.368Z,102036.88
2022-08-08T09:01:09.142Z,102041.69
2022-08-08T09:03:47.657Z,102035.66
2022-08-08T09:06:31.890Z,102039.28
2022-08-08T09:09:40.310Z,102035.72
2022-08-08T09:12:16.271Z,102032.09
2022-08-08T09:14:45.005Z,102039.69
2022-08-08T09:17:18.357Z,102040.50
2022-08-08T09:22:00.704Z,102034.16
2022-08-08T09:22:46.344Z,102043.75
2022-08-08T09:25:15.106Z,102037.31
2022-08-08T09:27:57.492Z,102038.09
2022-08-08T09:30:25.910Z,102030.13
2022-08-08T09:33:12.479Z,102030.09
2022-08-08T09:35:49.209Z,102037.31
2022-08-08T09:38:32.102Z,102035.72
2022-08-08T09:41:03.169Z,102030.16
2022-08-08T09:44:04.479Z,102032.97
2022-08-08T09:46:25.874Z,102031.78
2022-08-08T09:48:57.687Z,102028.16
2022-08-08T09:52:06.033Z,102018.22
2022-08-08T09:54:43.879Z,102023.00
2022-08-08T09:57:16.553Z,102019.00
2022-08-08T10:02:47.260Z,102017.81
2022-08-08T10:05:25.614Z,102019.78
2022-08-08T10:07:52.295Z,102020.97
2022-08-08T10:10:37.745Z,102020.97
2022-08-08T10:13:19.226Z,102015.78
2022-08-08T10:16:01.046Z,102017.38
2022-08-08T10:18:37.334Z,102012.59
2022-08-08T10:21:22.480Z,102014.56
2022-08-08T10:23:58.525Z,102009.75
2022-08-08T10:26:30.579Z,102013.34
2022-08-08T10:29:21.150Z,102005.75
2022-08-08T10:32:15.009Z,102008.94
2022-08-08T10:34:49.330Z,102006.53
2022-08-08T10:37:30.689Z,102003.72
2022-08-08T10:39:57.855Z,102004.50
2022-08-08T10:42:35.728Z,102008.09
2022-08-08T10:45:09.171Z,102007.28
2022-08-08T10:47:43.852Z,102006.47
2022-08-08T10:50:15.692Z,101999.69
2022-08-08T10:52:42.484Z,101997.25
2022-08-08T10:55:15.397Z,102001.66
2022-08-08T10:58:08.469Z,101995.25
2022-08-08T11:00:48.624Z,102002.44
2022-08-08T11:03:37.224Z,101990.91
2022-08-08T11:06:12.723Z,101997.66
2022-08-08T11:08:53.206Z,101995.66
2022-08-08T11:12:00.201Z,101982.91
2022-08-08T11:14:07.801Z,101992.84
2022-08-08T11:16:46.704Z,101987.22
2022-08-08T11:19:15.574Z,101995.25
2022-08-08T11:21:55.748Z,101987.66
2022-08-08T11:24:25.116Z,101986.03
2022-08-08T11:26:56.556Z,101977.25
2022-08-08T11:29:41.344Z,101981.25
2022-08-08T11:32:13.709Z,101977.22
2022-08-08T11:34:58.962Z,101978.00
2022-08-08T11:38:36.329Z,101979.22
2022-08-08T11:40:15.749Z,101983.59
2022-08-08T11:42:50.868Z,101978.81
2022-08-08T11:45:18.199Z,101994.75
2022-08-08T11:48:02.473Z,101982.75
2022-08-08T11:50:32.310Z,101986.81
2022-08-08T11:53:00.774Z,101992.38
2022-08-08T11:55:35.284Z,101986.03
2022-08-08T11:58:08.412Z,101988.00
2022-08-08T12:00:59.906Z,101986.06
2022-08-08T12:03:30.577Z,101979.28
2022-08-08T12:05:57.477Z,101987.69
2022-08-08T12:08:30.872Z,101974.13
2022-08-08T12:10:59.867Z,101971.75
2022-08-08T12:13:38.057Z,101968.53
2022-08-08T12:16:16.237Z,101960.97
2022-08-08T12:18:49.448Z,101966.97
2022-08-08T12:21:59.876Z,101970.16
2022-08-08T12:24:14.236Z,101962.94
2022-08-08T12:26:50.066Z,101959.75
2022-08-08T12:29:21.481Z,101964.09
2022-08-08T12:31:53.687Z,101964.09
2022-08-08T12:34:36.231Z,101959.72
2022-08-08T12:37:05.345Z,101956.44
2022-08-08T12:40:00.077Z,101957.66
2022-08-08T12:42:21.865Z,101958.00
2022-08-08T12:44:50.410Z,101960.03
2022-08-08T12:47:58.020Z,101953.22
2022-08-08T12:50:13.492Z,101955.63
2022-08-08T12:52:42.335Z,101952.44
2022-08-08T12:55:13.648Z,101950.84
2022-08-08T12:57:49.951Z,101948.44
2022-08-08T13:00:33.818Z,101946.06
2022-08-08T13:03:05.426Z,101951.66
2022-08-08T13:06:05.402Z,101939.81
2022-08-08T13:08:21.769Z,101947.72
2022-08-08T13:10:56.675Z,101946.91
2022-08-08T13:13:37.021Z,101935.25
2022-08-08T13:16:20.573Z,101946.03
2022-08-08T13:18:58.251Z,101939.66
2022-08-08T13:21:53.375Z,101940.44
2022-08-08T13:24:18.303Z,101942.00
2022-08-08T13:26:45.492Z,101938.47
2022-08-08T13:29:13.604Z,101938.47
2022-08-08T13:31:51.669Z,101945.22
2022-08-08T13:34:29.345Z,101943.25
2022-08-08T13:36:59.826Z,101940.88
2022-08-08T13:39:26.317Z,101945.22
2022-08-08T13:42:00.146Z,101940.44
2022-08-08T13:44:29.022Z,101942.84
2022-08-08T13:46:59.009Z,101941.63
2022-08-08T13:50:36.587Z,101943.25
2022-08-08T13:52:12.175Z,101935.72
2022-08-08T13:54:50.403Z,101945.31
2022-08-08T13:57:19.037Z,101946.88
2022-08-08T14:00:09.821Z,101936.53
2022-08-08T14:02:36.812Z,101934.47
2022-08-08T14:05:20.178Z,101937.59
2022-08-08T14:07:49.875Z,101935.19
2022-08-08T14:10:33.627Z,101934.41
2022-08-08T14:13:09.959Z,101934.38
2022-08-08T14:16:01.428Z,101934.78
2022-08-08T14:18:35.576Z,101933.16
2022-08-08T14:21:15.305Z,101932.38
2022-08-08T14:24:04.214Z,101937.56
2022-08-08T14:26:38.172Z,101931.66
2022-08-08T14:29:06.156Z,101934.03
2022-08-08T14:32:09.344Z,101928.84
2022-08-08T14:34:33.259Z,101931.66
2022-08-08T14:37:05.499Z,101924.53
2022-08-08T14:39:48.399Z,101922.97
2022-08-08T14:42:16.743Z,101926.91
2022-08-08T14:44:52.888Z,101925.34
2022-08-08T14:47:21.720Z,101936.00
2022-08-08T14:50:06.263Z,101922.84
2022-08-08T14:52:39.152Z,101924.44
2022-08-08T14:55:10.452Z,101923.63
2022-08-08T14:58:05.998Z,101926.41
2022-08-08T15:00:25.167Z,101916.03
2022-08-08T15:02:58.924Z,101923.69
2022-08-08T15:05:43.090Z,101914.44
2022-08-08T15:08:22.436Z,101916.19
2022-08-08T15:11:00.463Z,101912.91
2022-08-08T15:13:26.858Z,101917.25
2022-08-08T15:16:08.499Z,101920.06
2022-08-08T15:18:40.051Z,101923.91
2022-08-08T15:21:10.551Z,101921.53
2022-08-08T15:23:37.533Z,101922.84
2022-08-08T15:26:04.170Z,101929.25
2022-08-08T15:28:33.951Z,101934.75
2022-08-08T15:31:01.316Z,101931.59
2022-08-08T15:33:35.358Z,101935.53
2022-08-08T15:36:05.402Z,101926.41
2022-08-08T15:38:32.425Z,101930.03
2022-08-08T15:40:59.040Z,101929.22
2022-08-08T15:43:36.423Z,101921.28
2022-08-08T15:46:05.143Z,101912.97
2022-08-08T15:48:31.550Z,101924.06
2022-08-08T15:51:01.650Z,101907.84
2022-08-08T15:53:40.231Z,101911.75
2022-08-08T15:56:10.838Z,101917.25
2022-08-08T15:58:39.367Z,101911.31
2022-08-08T16:01:14.875Z,101918.06
2022-08-08T16:03:42.175Z,101914.84
2022-08-08T16:06:14.470Z,101918.41
2022-08-08T16:08:40.996Z,101910.28
2022-08-08T16:13:11.973Z,101912.69
2022-08-08T16:14:16.014Z,101918.13
2022-08-08T16:16:58.905Z,101928.34
2022-08-08T16:19:26.234Z,101924.44
2022-08-08T16:21:54.067Z,101918.06
2022-08-08T16:24:22.957Z,101916.91
2022-08-08T16:26:50.819Z,101918.06
2022-08-08T16:29:37.057Z,101914.44
2022-08-08T16:32:04.284Z,101908.47
2022-08-08T16:34:37.705Z,101919.56
2022-08-08T16:37:05.303Z,101923.16
2022-08-08T16:40:02.212Z,101907.31
2022-08-08T16:42:18.778Z,101917.72
2022-08-08T16:44:53.967Z,101908.22
2022-08-08T16:47:40.053Z,101917.44
2022-08-08T16:50:13.193Z,101914.59
2022-08-08T16:55:06.926Z,101917.34
2022-08-08T16:55:53.239Z,101909.41
2022-08-08T16:58:18.484Z,101918.72
2022-08-08T17:00:48.756Z,101913.50
2022-08-08T17:03:24.430Z,101927.47
2022-08-08T17:05:53.480Z,101915.97
2022-08-08T17:08:20.294Z,101927.91
2022-08-08T17:10:58.142Z,101927.09
2022-08-08T17:13:40.930Z,101925.50
2022-08-08T17:16:17.114Z,101918.75
2022-08-08T17:18:45.619Z,101918.34
2022-08-08T17:21:12.414Z,101924.72
2022-08-08T17:24:01.918Z,101924.72
2022-08-08T17:26:28.895Z,101917.56
2022-08-08T17:28:55.843Z,101918.78
2022-08-08T17:31:43.662Z,101921.53
2022-08-08T17:34:53.981Z,101916.00
2022-08-08T17:37:03.076Z,101924.78
2022-08-08T17:40:03.820Z,101927.16
2022-08-08T17:42:17.951Z,101933.88
2022-08-08T17:44:45.019Z,101937.13
2022-08-08T17:47:16.295Z,101933.13
2022-08-08T17:49:51.801Z,101924.00
2022-08-08T17:52:19.177Z,101938.34
2022-08-08T17:54:46.369Z,101940.78
2022-08-08T17:57:14.244Z,101937.97
2022-08-08T17:59:45.927Z,101932.81
2022-08-08T18:02:16.339Z,101935.22
2022-08-08T18:04:50.658Z,101938.41
2022-08-08T18:08:03.621Z,101942.00
2022-08-08T18:10:04.507Z,101951.94
2022-08-08T18:12:30.875Z,101940.38
2022-08-08T18:14:57.535Z,101943.19
2022-08-08T18:17:28.568Z,101938.38
2022-08-08T18:20:44.409Z,101947.97
2022-08-08T18:22:50.663Z,101957.13
2022-08-08T18:25:17.628Z,101955.94
2022-08-08T18:27:45.634Z,101962.34
2022-08-08T18:30:13.166Z,101961.53
2022-08-08T18:32:41.964Z,101961.13
2022-08-08T18:35:15.503Z,101971.13
2022-08-08T18:37:47.883Z,101974.31
2022-08-08T18:40:15.226Z,101977.13
2022-08-08T18:42:45.804Z,101979.09
2022-08-08T18:46:52.281Z,101979.09
2022-08-08T18:48:08.396Z,101985.50
2022-08-08T18:50:39.767Z,101977.50
2022-08-08T18:53:22.451Z,101985.44
2022-08-08T18:55:49.255Z,101987.03
2022-08-08T18:58:15.635Z,101985.84
2022-08-08T19:00:46.494Z,101989.41
2022-08-08T19:03:16.542Z,101990.97
2022-08-08T19:05:46.421Z,101982.91
2022-08-08T19:08:25.387Z,101993.28
2022-08-08T19:10:56.182Z,101994.00
2022-08-08T19:13:24.488Z,101997.63
2022-08-08T19:15:55.618Z,101998.78
2022-08-08T19:18:33.134Z,102001.09
2022-08-08T19:21:29.401Z,101996.28
2022-08-08T19:23:56.012Z,102001.03
2022-08-08T19:26:30.768Z,102007.38
2022-08-08T19:28:58.275Z,101998.16
2022-08-08T19:31:31.464Z,102001.69
2022-08-08T19:34:29.774Z,102007.66
2022-08-08T19:36:51.940Z,102009.59
2022-08-08T19:39:19.594Z,102014.38
2022-08-08T19:41:49.404Z,102013.56
2022-08-08T19:44:42.360Z,102017.53
2022-08-08T19:47:04.216Z,102011.91
2022-08-08T19:49:37.685Z,102015.91
2022-08-08T19:52:04.891Z,102014.22
2022-08-08T19:54:31.966Z,102016.66
2022-08-08T19:56:58.794Z,102012.25
2022-08-08T19:59:31.041Z,102014.16
2022-08-08T20:02:04.561Z,102027.63
2022-08-08T20:04:31.646Z,102028.75
2022-08-08T20:07:05.033Z,102028.72
2022-08-08T20:09:45.267Z,102031.44
2022-08-08T20:12:32.535Z,102035.38
2022-08-08T20:15:02.277Z,102035.28
2022-08-08T20:17:41.964Z,102027.34
2022-08-08T20:20:10.266Z,102033.63
2022-08-08T20:22:40.237Z,102033.19
2022-08-08T20:25:07.909Z,102038.75
2022-08-08T20:27:49.266Z,102041.53
2022-08-08T20:30:38.989Z,102037.06
2022-08-08T20:33:04.401Z,102035.44
2022-08-08T20:35:57.058Z,102038.41
2022-08-08T20:38:32.402Z,102035.63
2022-08-08T20:41:00.435Z,102039.09
2022-08-08T20:43:42.955Z,102039.09
2022-08-08T20:46:09.675Z,102038.69
2022-08-08T20:48:37.013Z,102040.44
2022-08-08T20:51:05.378Z,102043.72
2022-08-08T20:53:59.114Z,102039.25
2022-08-08T20:56:20.121Z,102035.19
2022-08-08T20:59:03.288Z,102038.59
2022-08-08T21:01:32.600Z,102036.53
2022-08-08T21:04:14.207Z,102042.41
2022-08-08T21:06:52.548Z,102041.13
2022-08-08T21:09:21.667Z,102043.91
2022-08-08T21:11:50.360Z,102050.19
2022-08-08T21:14:17.803Z,102051.31
2022-08-08T21:16:56.992Z,102054.91
2022-08-08T21:19:23.401Z,102054.91
2022-08-08T21:21:56.757Z,102053.78
2022-08-08T21:24:30.244Z,102054.59
2022-08-08T21:26:57.955Z,102052.94
2022-08-08T21:30:05.743Z,102064.06
2022-08-08T21:32:19.123Z,102060.16
2022-08-08T21:34:51.598Z,102060.97
2022-08-08T21:37:28.759Z,102060.16
2022-08-08T21:40:10.226Z,102061.41
2022-08-08T21:42:37.857Z,102054.69
2022-08-08T21:45:44.060Z,102067.34
2022-08-08T21:48:01.100Z,102059.13
2022-08-08T21:50:29.649Z,102059.50
2022-08-08T21:54:22.636Z,102056.25
2022-08-08T21:56:26.728Z,102055.50
2022-08-08T21:58:37.543Z,102058.38
2022-08-08T22:01:04.675Z,102056.75
2022-08-08T22:03:31.489Z,102063.19
2022-08-08T22:06:00.623Z,102063.50
2022-08-08T22:08:37.069Z,102058.28
2022-08-08T22:11:51.279Z,102063.44
2022-08-08T22:13:55.182Z,102057.84
2022-08-08T22:16:22.316Z,102062.94
2022-08-08T22:18:52.603Z,102060.22
2022-08-08T22:21:21.773Z,102054.59
2022-08-08T22:23:51.358Z,102057.09
2022-08-08T22:26:29.902Z,102057.06
2022-08-08T22:29:14.385Z,102064.56
2022-08-08T22:31:58.930Z,102065.38
2022-08-08T22:34:30.550Z,102062.72
2022-08-08T22:36:56.909Z,102065.91
2022-08-08T22:39:23.289Z,102063.81
2022-08-08T22:42:10.036Z,102064.25
2022-08-08T22:44:36.972Z,102056.72
2022-08-08T22:47:17.714Z,102057.88
2022-08-08T22:49:44.875Z,102056.69
2022-08-08T22:52:25.935Z,102062.16
2022-08-08T22:54:55.969Z,102065.69
2022-08-08T22:57:43.595Z,102063.59
2022-08-08T23:00:13.347Z,102064.78
2022-08-08T23:02:40.043Z,102069.06
2022-08-08T23:05:13.721Z,102064.72
2022-08-08T23:07:51.017Z,102068.53
2022-08-08T23:10:25.567Z,102069.50
2022-08-08T23:12:54.538Z,102069.59
2022-08-08T23:16:39.329Z,102075.50
2022-08-08T23:18:08.450Z,102067.78
2022-08-08T23:20:39.002Z,102076.03
2022-08-08T23:23:05.427Z,102067.69
2022-08-08T23:25:45.415Z,102073.16
2022-08-08T23:28:15.486Z,102075.31
2022-08-08T23:30:44.275Z,102069.63
2022-08-08T23:33:19.267Z,102072.31
2022-08-08T23:36:06.735Z,102081.84
2022-08-08T23:38:34.496Z,102080.50
2022-08-08T23:41:00.887Z,102075.66
2022-08-08T23:43:31.652Z,102071.88
2022-08-08T23:49:02.527Z,102080.00
2022-08-08T23:49:15.518Z,102082.53
2022-08-08T23:52:04.029Z,102083.28
2022-08-08T23:54:43.759Z,102078.25
2022-08-08T23:57:26.582Z,102083.06
